sensor_id;sensor_type;location;lat;lon;timestamp;P1;durP1;ratioP1;P2;durP2;ratioP2
69744;SDS011;57015;50.120;-5.168;2022-10-16T00:00:34;9.88;;;0.90;;
69744;SDS011;57015;50.120;-5.168;2022-10-16T00:03:00;12.00;;;0.90;;
69744;SDS011;57015;50.120;-5.168;2022-10-16T00:05:26;11.18;;;0.65;;
69744;SDS011;57015;50.120;-5.168;2022-10-16T00:07:52;15.33;;;2.67;;
69744;SDS011;57015;50.120;-5.168;2022-10-16T00:10:17;8.87;;;1.00;;
69744;SDS011;57015;50.120;-5.168;2022-10-16T00:12:42;11.57;;;1.67;;
69744;SDS011;57015;50.120;-5.168;2022-10-16T00:15:08;10.97;;;0.83;;
69744;SDS011;57015;50.120;-5.168;2022-10-16T00:17:34;9.60;;;1.00;;
69744;SDS011;57015;50.120;-5.168;2022-10-16T00:19:59;13.03;;;1.53;;
69744;SDS011;57015;50.120;-5.168;2022-10-16T00:22:24;13.93;;;1.07;;
69744;SDS011;57015;50.120;-5.168;2022-10-16T00:24:50;14.70;;;1.40;;
69744;SDS011;57015;50.120;-5.168;2022-10-16T00:27:15;11.88;;;1.70;;
69744;SDS011;57015;50.120;-5.168;2022-10-16T00:29:41;9.33;;;0.97;;
69744;SDS011;57015;50.120;-5.168;2022-10-16T00:32:07;16.67;;;1.15;;
69744;SDS011;57015;50.120;-5.168;2022-10-16T00:34:32;13.80;;;1.87;;
69744;SDS011;57015;50.120;-5.168;2022-10-16T00:36:58;15.50;;;1.23;;
69744;SDS011;57015;50.120;-5.168;2022-10-16T00:39:23;13.67;;;0.73;;
69744;SDS011;57015;50.120;-5.168;2022-10-16T00:41:49;9.32;;;1.00;;
69744;SDS011;57015;50.120;-5.168;2022-10-16T00:47:09;8.10;;;0.63;;
69744;SDS011;57015;50.120;-5.168;2022-10-16T00:49:35;11.85;;;1.30;;
69744;SDS011;57015;50.120;-5.168;2022-10-16T00:52:01;14.67;;;1.10;;
69744;SDS011;57015;50.120;-5.168;2022-10-16T00:54:28;14.93;;;1.20;;
69744;SDS011;57015;50.120;-5.168;2022-10-16T00:56:55;10.55;;;1.65;;
69744;SDS011;57015;50.120;-5.168;2022-10-16T00:59:22;16.08;;;1.50;;
69744;SDS011;57015;50.120;-5.168;2022-10-16T01:01:49;12.88;;;1.33;;
69744;SDS011;57015;50.120;-5.168;2022-10-16T01:04:15;10.97;;;1.73;;
69744;SDS011;57015;50.120;-5.168;2022-10-16T01:14:40;8.98;;;0.85;;
69744;SDS011;57015;50.120;-5.168;2022-10-16T01:17:15;10.30;;;1.02;;
69744;SDS011;57015;50.120;-5.168;2022-10-16T01:25:23;9.02;;;1.15;;
69744;SDS011;57015;50.120;-5.168;2022-10-16T01:27:51;5.28;;;0.60;;
69744;SDS011;57015;50.120;-5.168;2022-10-16T01:30:17;13.87;;;1.00;;
69744;SDS011;57015;50.120;-5.168;2022-10-16T01:32:50;11.60;;;1.85;;
69744;SDS011;57015;50.120;-5.168;2022-10-16T01:40:50;11.48;;;1.08;;
69744;SDS011;57015;50.120;-5.168;2022-10-16T01:43:21;9.80;;;0.57;;
69744;SDS011;57015;50.120;-5.168;2022-10-16T01:45:51;12.27;;;1.48;;
69744;SDS011;57015;50.120;-5.168;2022-10-16T01:48:17;12.10;;;1.60;;
69744;SDS011;57015;50.120;-5.168;2022-10-16T01:50:44;11.45;;;1.45;;
69744;SDS011;57015;50.120;-5.168;2022-10-16T01:53:16;8.00;;;2.28;;
69744;SDS011;57015;50.120;-5.168;2022-10-16T01:55:43;10.13;;;1.13;;
69744;SDS011;57015;50.120;-5.168;2022-10-16T01:58:10;10.52;;;0.73;;
69744;SDS011;57015;50.120;-5.168;2022-10-16T02:00:38;11.23;;;1.00;;
69744;SDS011;57015;50.120;-5.168;2022-10-16T02:03:05;9.75;;;0.70;;
69744;SDS011;57015;50.120;-5.168;2022-10-16T02:05:32;13.93;;;1.65;;
69744;SDS011;57015;50.120;-5.168;2022-10-16T02:08:02;8.90;;;1.27;;
69744;SDS011;57015;50.120;-5.168;2022-10-16T02:10:27;12.63;;;1.50;;
69744;SDS011;57015;50.120;-5.168;2022-10-16T02:13:06;8.70;;;1.50;;
69744;SDS011;57015;50.120;-5.168;2022-10-16T02:15:36;14.00;;;1.02;;
69744;SDS011;57015;50.120;-5.168;2022-10-16T02:20:29;7.97;;;0.93;;
69744;SDS011;57015;50.120;-5.168;2022-10-16T02:22:59;12.37;;;0.67;;
69744;SDS011;57015;50.120;-5.168;2022-10-16T02:25:34;10.68;;;1.13;;
69744;SDS011;57015;50.120;-5.168;2022-10-16T02:28:17;10.73;;;0.90;;
69744;SDS011;57015;50.120;-5.168;2022-10-16T02:30:53;14.10;;;1.00;;
69744;SDS011;57015;50.120;-5.168;2022-10-16T02:33:22;10.15;;;0.70;;
69744;SDS011;57015;50.120;-5.168;2022-10-16T02:35:48;13.30;;;1.00;;
69744;SDS011;57015;50.120;-5.168;2022-10-16T02:38:16;15.98;;;1.02;;
69744;SDS011;57015;50.120;-5.168;2022-10-16T02:40:42;10.77;;;1.23;;
69744;SDS011;57015;50.120;-5.168;2022-10-16T02:43:07;12.40;;;0.75;;
69744;SDS011;57015;50.120;-5.168;2022-10-16T02:45:34;18.10;;;1.33;;
69744;SDS011;57015;50.120;-5.168;2022-10-16T02:47:59;13.68;;;1.50;;
69744;SDS011;57015;50.120;-5.168;2022-10-16T02:50:24;12.60;;;1.08;;
69744;SDS011;57015;50.120;-5.168;2022-10-16T02:52:50;10.67;;;1.03;;
69744;SDS011;57015;50.120;-5.168;2022-10-16T02:55:15;12.30;;;0.67;;
69744;SDS011;57015;50.120;-5.168;2022-10-16T02:57:41;9.07;;;0.60;;
69744;SDS011;57015;50.120;-5.168;2022-10-16T03:00:08;9.27;;;0.75;;
69744;SDS011;57015;50.120;-5.168;2022-10-16T03:02:34;8.50;;;0.77;;
69744;SDS011;57015;50.120;-5.168;2022-10-16T03:05:00;6.40;;;0.50;;
69744;SDS011;57015;50.120;-5.168;2022-10-16T03:07:25;13.38;;;1.10;;
69744;SDS011;57015;50.120;-5.168;2022-10-16T03:09:51;9.88;;;0.70;;
69744;SDS011;57015;50.120;-5.168;2022-10-16T03:12:16;8.47;;;1.00;;
69744;SDS011;57015;50.120;-5.168;2022-10-16T03:14:42;8.60;;;0.90;;
69744;SDS011;57015;50.120;-5.168;2022-10-16T03:17:07;10.63;;;1.13;;
69744;SDS011;57015;50.120;-5.168;2022-10-16T03:19:32;11.97;;;0.97;;
69744;SDS011;57015;50.120;-5.168;2022-10-16T03:21:58;10.70;;;1.87;;
69744;SDS011;57015;50.120;-5.168;2022-10-16T03:24:23;7.37;;;0.67;;
69744;SDS011;57015;50.120;-5.168;2022-10-16T03:26:48;8.13;;;1.02;;
69744;SDS011;57015;50.120;-5.168;2022-10-16T03:29:14;7.93;;;0.57;;
69744;SDS011;57015;50.120;-5.168;2022-10-16T03:31:39;10.60;;;0.80;;
69744;SDS011;57015;50.120;-5.168;2022-10-16T03:34:05;11.33;;;1.00;;
69744;SDS011;57015;50.120;-5.168;2022-10-16T03:36:30;9.00;;;0.87;;
69744;SDS011;57015;50.120;-5.168;2022-10-16T03:38:56;8.40;;;0.60;;
69744;SDS011;57015;50.120;-5.168;2022-10-16T03:41:21;9.37;;;1.40;;
69744;SDS011;57015;50.120;-5.168;2022-10-16T03:43:46;11.53;;;0.60;;
69744;SDS011;57015;50.120;-5.168;2022-10-16T03:46:12;11.20;;;1.00;;
69744;SDS011;57015;50.120;-5.168;2022-10-16T03:48:37;16.03;;;0.90;;
69744;SDS011;57015;50.120;-5.168;2022-10-16T03:51:03;8.50;;;0.50;;
69744;SDS011;57015;50.120;-5.168;2022-10-16T03:53:28;7.50;;;0.60;;
69744;SDS011;57015;50.120;-5.168;2022-10-16T03:55:53;7.97;;;0.70;;
69744;SDS011;57015;50.120;-5.168;2022-10-16T03:58:19;9.32;;;1.45;;
69744;SDS011;57015;50.120;-5.168;2022-10-16T04:00:45;9.93;;;0.63;;
69744;SDS011;57015;50.120;-5.168;2022-10-16T04:03:12;10.77;;;0.88;;
69744;SDS011;57015;50.120;-5.168;2022-10-16T04:05:37;10.27;;;0.73;;
69744;SDS011;57015;50.120;-5.168;2022-10-16T04:08:03;10.18;;;0.50;;
69744;SDS011;57015;50.120;-5.168;2022-10-16T04:10:29;10.90;;;0.97;;
69744;SDS011;57015;50.120;-5.168;2022-10-16T04:12:54;7.18;;;0.68;;
69744;SDS011;57015;50.120;-5.168;2022-10-16T04:15:21;5.25;;;0.40;;
69744;SDS011;57015;50.120;-5.168;2022-10-16T04:17:47;5.63;;;0.63;;
69744;SDS011;57015;50.120;-5.168;2022-10-16T04:20:13;10.63;;;0.70;;
69744;SDS011;57015;50.120;-5.168;2022-10-16T04:22:38;6.10;;;0.40;;
69744;SDS011;57015;50.120;-5.168;2022-10-16T04:25:04;7.17;;;0.57;;
69744;SDS011;57015;50.120;-5.168;2022-10-16T04:27:30;8.52;;;0.75;;
69744;SDS011;57015;50.120;-5.168;2022-10-16T04:29:56;6.47;;;0.52;;
69744;SDS011;57015;50.120;-5.168;2022-10-16T04:32:22;7.15;;;0.80;;
69744;SDS011;57015;50.120;-5.168;2022-10-16T04:34:48;8.00;;;0.50;;
69744;SDS011;57015;50.120;-5.168;2022-10-16T04:37:13;6.83;;;1.57;;
69744;SDS011;57015;50.120;-5.168;2022-10-16T04:39:38;12.20;;;0.67;;
69744;SDS011;57015;50.120;-5.168;2022-10-16T04:42:04;6.30;;;0.60;;
69744;SDS011;57015;50.120;-5.168;2022-10-16T04:44:29;6.93;;;0.60;;
69744;SDS011;57015;50.120;-5.168;2022-10-16T04:46:54;8.90;;;0.80;;
69744;SDS011;57015;50.120;-5.168;2022-10-16T04:49:20;10.93;;;0.82;;
69744;SDS011;57015;50.120;-5.168;2022-10-16T04:51:45;7.75;;;0.63;;
69744;SDS011;57015;50.120;-5.168;2022-10-16T04:54:10;7.87;;;0.70;;
69744;SDS011;57015;50.120;-5.168;2022-10-16T04:56:36;9.37;;;0.50;;
69744;SDS011;57015;50.120;-5.168;2022-10-16T04:59:08;5.70;;;0.40;;
69744;SDS011;57015;50.120;-5.168;2022-10-16T05:01:34;7.10;;;0.80;;
69744;SDS011;57015;50.120;-5.168;2022-10-16T05:03:59;8.32;;;0.95;;
69744;SDS011;57015;50.120;-5.168;2022-10-16T05:06:24;6.37;;;0.93;;
69744;SDS011;57015;50.120;-5.168;2022-10-16T05:08:50;5.80;;;0.87;;
69744;SDS011;57015;50.120;-5.168;2022-10-16T05:11:15;6.67;;;0.43;;
69744;SDS011;57015;50.120;-5.168;2022-10-16T05:13:41;3.87;;;0.60;;
69744;SDS011;57015;50.120;-5.168;2022-10-16T05:16:06;6.80;;;0.70;;
69744;SDS011;57015;50.120;-5.168;2022-10-16T05:18:32;8.90;;;0.85;;
69744;SDS011;57015;50.120;-5.168;2022-10-16T05:20:57;7.70;;;0.77;;
69744;SDS011;57015;50.120;-5.168;2022-10-16T05:23:22;10.20;;;2.20;;
69744;SDS011;57015;50.120;-5.168;2022-10-16T05:25:51;10.17;;;0.60;;
69744;SDS011;57015;50.120;-5.168;2022-10-16T05:28:20;8.82;;;0.98;;
69744;SDS011;57015;50.120;-5.168;2022-10-16T05:30:46;8.90;;;0.60;;
69744;SDS011;57015;50.120;-5.168;2022-10-16T05:33:11;10.63;;;0.70;;
69744;SDS011;57015;50.120;-5.168;2022-10-16T05:35:37;7.25;;;0.55;;
69744;SDS011;57015;50.120;-5.168;2022-10-16T05:38:02;4.93;;;0.60;;
69744;SDS011;57015;50.120;-5.168;2022-10-16T05:40:27;5.00;;;0.80;;
69744;SDS011;57015;50.120;-5.168;2022-10-16T05:42:56;5.40;;;0.47;;
69744;SDS011;57015;50.120;-5.168;2022-10-16T05:45:21;7.45;;;0.50;;
69744;SDS011;57015;50.120;-5.168;2022-10-16T05:47:47;6.23;;;0.30;;
69744;SDS011;57015;50.120;-5.168;2022-10-16T05:50:12;2.17;;;0.27;;
69744;SDS011;57015;50.120;-5.168;2022-10-16T05:52:37;5.00;;;0.30;;
69744;SDS011;57015;50.120;-5.168;2022-10-16T05:55:03;3.43;;;0.37;;
69744;SDS011;57015;50.120;-5.168;2022-10-16T05:57:29;6.20;;;0.45;;
69744;SDS011;57015;50.120;-5.168;2022-10-16T05:59:54;3.58;;;0.22;;
69744;SDS011;57015;50.120;-5.168;2022-10-16T06:02:20;6.70;;;0.20;;
69744;SDS011;57015;50.120;-5.168;2022-10-16T06:04:45;3.83;;;0.17;;
69744;SDS011;57015;50.120;-5.168;2022-10-16T06:07:11;3.63;;;0.20;;
69744;SDS011;57015;50.120;-5.168;2022-10-16T06:09:36;5.30;;;0.57;;
69744;SDS011;57015;50.120;-5.168;2022-10-16T06:12:02;2.72;;;0.25;;
69744;SDS011;57015;50.120;-5.168;2022-10-16T06:14:27;1.53;;;0.20;;
69744;SDS011;57015;50.120;-5.168;2022-10-16T06:16:52;6.23;;;0.60;;
69744;SDS011;57015;50.120;-5.168;2022-10-16T06:19:18;4.03;;;0.43;;
69744;SDS011;57015;50.120;-5.168;2022-10-16T06:21:43;4.30;;;0.20;;
69744;SDS011;57015;50.120;-5.168;2022-10-16T06:24:09;4.03;;;0.68;;
69744;SDS011;57015;50.120;-5.168;2022-10-16T06:26:34;3.35;;;0.32;;
69744;SDS011;57015;50.120;-5.168;2022-10-16T06:29:00;8.13;;;0.70;;
69744;SDS011;57015;50.120;-5.168;2022-10-16T06:31:26;4.00;;;0.40;;
69744;SDS011;57015;50.120;-5.168;2022-10-16T06:33:55;3.20;;;0.22;;
69744;SDS011;57015;50.120;-5.168;2022-10-16T06:36:21;1.98;;;0.10;;
69744;SDS011;57015;50.120;-5.168;2022-10-16T06:38:47;2.60;;;0.40;;
69744;SDS011;57015;50.120;-5.168;2022-10-16T06:41:13;5.07;;;0.30;;
69744;SDS011;57015;50.120;-5.168;2022-10-16T06:43:40;7.32;;;0.52;;
69744;SDS011;57015;50.120;-5.168;2022-10-16T06:46:06;6.43;;;0.50;;
69744;SDS011;57015;50.120;-5.168;2022-10-16T06:48:34;5.55;;;0.45;;
69744;SDS011;57015;50.120;-5.168;2022-10-16T06:51:03;4.23;;;1.17;;
69744;SDS011;57015;50.120;-5.168;2022-10-16T06:53:31;3.50;;;0.30;;
69744;SDS011;57015;50.120;-5.168;2022-10-16T06:56:05;2.47;;;0.22;;
69744;SDS011;57015;50.120;-5.168;2022-10-16T06:58:35;2.47;;;0.50;;
69744;SDS011;57015;50.120;-5.168;2022-10-16T07:01:01;5.33;;;0.30;;
69744;SDS011;57015;50.120;-5.168;2022-10-16T07:03:26;3.73;;;0.37;;
69744;SDS011;57015;50.120;-5.168;2022-10-16T07:05:51;4.97;;;0.27;;
69744;SDS011;57015;50.120;-5.168;2022-10-16T07:08:17;6.10;;;0.30;;
69744;SDS011;57015;50.120;-5.168;2022-10-16T07:10:42;2.88;;;0.40;;
69744;SDS011;57015;50.120;-5.168;2022-10-16T07:13:07;4.13;;;0.30;;
69744;SDS011;57015;50.120;-5.168;2022-10-16T07:15:33;3.37;;;0.23;;
69744;SDS011;57015;50.120;-5.168;2022-10-16T07:17:59;8.73;;;0.40;;
69744;SDS011;57015;50.120;-5.168;2022-10-16T07:20:24;1.75;;;0.20;;
69744;SDS011;57015;50.120;-5.168;2022-10-16T07:22:49;2.47;;;0.20;;
69744;SDS011;57015;50.120;-5.168;2022-10-16T07:25:16;2.90;;;0.20;;
69744;SDS011;57015;50.120;-5.168;2022-10-16T07:27:41;2.30;;;0.20;;
69744;SDS011;57015;50.120;-5.168;2022-10-16T07:30:07;4.50;;;0.47;;
69744;SDS011;57015;50.120;-5.168;2022-10-16T07:32:32;6.15;;;0.45;;
69744;SDS011;57015;50.120;-5.168;2022-10-16T07:34:58;4.27;;;0.50;;
69744;SDS011;57015;50.120;-5.168;2022-10-16T07:37:23;5.93;;;0.40;;
69744;SDS011;57015;50.120;-5.168;2022-10-16T07:39:49;5.47;;;2.03;;
69744;SDS011;57015;50.120;-5.168;2022-10-16T07:42:14;5.93;;;0.90;;
69744;SDS011;57015;50.120;-5.168;2022-10-16T07:44:39;3.80;;;0.20;;
69744;SDS011;57015;50.120;-5.168;2022-10-16T07:47:06;7.20;;;0.20;;
69744;SDS011;57015;50.120;-5.168;2022-10-16T07:49:32;3.60;;;0.52;;
69744;SDS011;57015;50.120;-5.168;2022-10-16T07:51:57;4.90;;;0.30;;
69744;SDS011;57015;50.120;-5.168;2022-10-16T07:54:22;2.40;;;0.50;;
69744;SDS011;57015;50.120;-5.168;2022-10-16T07:56:50;5.80;;;0.30;;
69744;SDS011;57015;50.120;-5.168;2022-10-16T07:59:22;2.13;;;0.38;;
69744;SDS011;57015;50.120;-5.168;2022-10-16T08:01:58;1.30;;;0.30;;
69744;SDS011;57015;50.120;-5.168;2022-10-16T08:04:38;4.70;;;0.50;;
69744;SDS011;57015;50.120;-5.168;2022-10-16T08:07:19;7.68;;;0.52;;
69744;SDS011;57015;50.120;-5.168;2022-10-16T08:10:17;2.87;;;0.40;;
69744;SDS011;57015;50.120;-5.168;2022-10-16T08:12:55;8.82;;;0.40;;
69744;SDS011;57015;50.120;-5.168;2022-10-16T08:15:25;4.28;;;0.30;;
69744;SDS011;57015;50.120;-5.168;2022-10-16T08:18:14;4.65;;;0.40;;
69744;SDS011;57015;50.120;-5.168;2022-10-16T08:20:54;2.63;;;0.30;;
69744;SDS011;57015;50.120;-5.168;2022-10-16T08:23:25;3.90;;;0.30;;
69744;SDS011;57015;50.120;-5.168;2022-10-16T08:25:55;5.85;;;0.52;;
69744;SDS011;57015;50.120;-5.168;2022-10-16T08:28:27;3.13;;;0.55;;
69744;SDS011;57015;50.120;-5.168;2022-10-16T08:30:53;7.03;;;0.22;;
69744;SDS011;57015;50.120;-5.168;2022-10-16T08:33:22;6.75;;;0.25;;
69744;SDS011;57015;50.120;-5.168;2022-10-16T08:35:52;5.63;;;0.30;;
69744;SDS011;57015;50.120;-5.168;2022-10-16T08:38:20;8.05;;;0.40;;
69744;SDS011;57015;50.120;-5.168;2022-10-16T08:40:54;4.68;;;0.50;;
69744;SDS011;57015;50.120;-5.168;2022-10-16T08:47:00;5.45;;;0.50;;
69744;SDS011;57015;50.120;-5.168;2022-10-16T08:49:31;3.03;;;0.30;;
69744;SDS011;57015;50.120;-5.168;2022-10-16T08:52:00;7.07;;;0.50;;
69744;SDS011;57015;50.120;-5.168;2022-10-16T08:56:56;5.70;;;0.40;;
69744;SDS011;57015;50.120;-5.168;2022-10-16T08:59:33;6.85;;;0.60;;
69744;SDS011;57015;50.120;-5.168;2022-10-16T09:02:00;5.83;;;0.37;;
69744;SDS011;57015;50.120;-5.168;2022-10-16T09:04:41;5.40;;;1.00;;
69744;SDS011;57015;50.120;-5.168;2022-10-16T09:07:18;6.65;;;0.50;;
69744;SDS011;57015;50.120;-5.168;2022-10-16T09:10:02;12.98;;;0.63;;
69744;SDS011;57015;50.120;-5.168;2022-10-16T09:15:31;13.07;;;0.90;;
69744;SDS011;57015;50.120;-5.168;2022-10-16T09:18:19;10.57;;;1.50;;
69744;SDS011;57015;50.120;-5.168;2022-10-16T09:21:23;15.27;;;1.33;;
69744;SDS011;57015;50.120;-5.168;2022-10-16T09:24:08;19.48;;;1.52;;
69744;SDS011;57015;50.120;-5.168;2022-10-16T09:27:11;16.20;;;1.23;;
69744;SDS011;57015;50.120;-5.168;2022-10-16T09:29:37;11.23;;;1.10;;
69744;SDS011;57015;50.120;-5.168;2022-10-16T09:32:08;11.95;;;1.35;;
69744;SDS011;57015;50.120;-5.168;2022-10-16T09:34:37;16.83;;;1.40;;
69744;SDS011;57015;50.120;-5.168;2022-10-16T09:37:13;15.68;;;1.67;;
69744;SDS011;57015;50.120;-5.168;2022-10-16T09:39:47;13.10;;;1.25;;
69744;SDS011;57015;50.120;-5.168;2022-10-16T09:42:17;15.13;;;1.27;;
69744;SDS011;57015;50.120;-5.168;2022-10-16T09:44:47;12.70;;;1.40;;
69744;SDS011;57015;50.120;-5.168;2022-10-16T09:47:23;14.43;;;1.23;;
69744;SDS011;57015;50.120;-5.168;2022-10-16T09:49:54;18.25;;;2.03;;
69744;SDS011;57015;50.120;-5.168;2022-10-16T09:52:23;13.85;;;1.20;;
69744;SDS011;57015;50.120;-5.168;2022-10-16T09:54:50;10.90;;;1.13;;
69744;SDS011;57015;50.120;-5.168;2022-10-16T09:57:20;13.33;;;1.30;;
69744;SDS011;57015;50.120;-5.168;2022-10-16T09:59:50;14.45;;;1.85;;
69744;SDS011;57015;50.120;-5.168;2022-10-16T10:02:27;16.20;;;1.63;;
69744;SDS011;57015;50.120;-5.168;2022-10-16T10:04:55;14.98;;;1.25;;
69744;SDS011;57015;50.120;-5.168;2022-10-16T10:07:28;16.67;;;1.30;;
69744;SDS011;57015;50.120;-5.168;2022-10-16T10:09:59;10.05;;;1.08;;
69744;SDS011;57015;50.120;-5.168;2022-10-16T10:12:27;14.38;;;1.85;;
69744;SDS011;57015;50.120;-5.168;2022-10-16T10:14:58;17.83;;;2.08;;
69744;SDS011;57015;50.120;-5.168;2022-10-16T10:17:28;13.00;;;1.00;;
69744;SDS011;57015;50.120;-5.168;2022-10-16T10:19:54;13.23;;;1.53;;
69744;SDS011;57015;50.120;-5.168;2022-10-16T10:22:30;16.25;;;1.70;;
69744;SDS011;57015;50.120;-5.168;2022-10-16T10:27:48;11.70;;;1.70;;
69744;SDS011;57015;50.120;-5.168;2022-10-16T10:30:27;12.38;;;1.23;;
69744;SDS011;57015;50.120;-5.168;2022-10-16T10:50:49;9.70;;;0.93;;
69744;SDS011;57015;50.120;-5.168;2022-10-16T10:56:05;11.98;;;1.60;;
69744;SDS011;57015;50.120;-5.168;2022-10-16T11:01:18;9.73;;;1.20;;
69744;SDS011;57015;50.120;-5.168;2022-10-16T11:06:33;9.83;;;1.50;;
69744;SDS011;57015;50.120;-5.168;2022-10-16T11:09:18;12.75;;;1.58;;
69744;SDS011;57015;50.120;-5.168;2022-10-16T11:14:21;9.30;;;1.13;;
69744;SDS011;57015;50.120;-5.168;2022-10-16T11:19:48;17.10;;;1.37;;
69744;SDS011;57015;50.120;-5.168;2022-10-16T11:27:51;12.30;;;1.40;;
69744;SDS011;57015;50.120;-5.168;2022-10-16T11:33:31;17.00;;;1.33;;
69744;SDS011;57015;50.120;-5.168;2022-10-16T11:44:06;10.50;;;1.48;;
69744;SDS011;57015;50.120;-5.168;2022-10-16T11:46:42;16.90;;;1.80;;
69744;SDS011;57015;50.120;-5.168;2022-10-16T11:49:15;14.00;;;2.13;;
69744;SDS011;57015;50.120;-5.168;2022-10-16T11:51:54;11.43;;;1.85;;
69744;SDS011;57015;50.120;-5.168;2022-10-16T11:54:26;12.23;;;1.83;;
69744;SDS011;57015;50.120;-5.168;2022-10-16T11:56:58;10.98;;;1.25;;
69744;SDS011;57015;50.120;-5.168;2022-10-16T11:59:28;10.37;;;1.07;;
69744;SDS011;57015;50.120;-5.168;2022-10-16T12:04:48;9.85;;;1.75;;
69744;SDS011;57015;50.120;-5.168;2022-10-16T12:07:27;13.15;;;1.85;;
69744;SDS011;57015;50.120;-5.168;2022-10-16T12:10:09;13.68;;;1.17;;
69744;SDS011;57015;50.120;-5.168;2022-10-16T12:12:45;11.30;;;1.80;;
69744;SDS011;57015;50.120;-5.168;2022-10-16T12:17:48;13.43;;;2.08;;
69744;SDS011;57015;50.120;-5.168;2022-10-16T12:22:49;15.57;;;1.80;;
69744;SDS011;57015;50.120;-5.168;2022-10-16T12:25:25;12.00;;;2.17;;
69744;SDS011;57015;50.120;-5.168;2022-10-16T12:28:17;15.65;;;1.33;;
69744;SDS011;57015;50.120;-5.168;2022-10-16T12:30:52;10.20;;;2.03;;
69744;SDS011;57015;50.120;-5.168;2022-10-16T12:33:23;8.13;;;1.10;;
69744;SDS011;57015;50.120;-5.168;2022-10-16T12:35:50;10.45;;;0.82;;
69744;SDS011;57015;50.120;-5.168;2022-10-16T12:41:23;10.40;;;0.95;;
69744;SDS011;57015;50.120;-5.168;2022-10-16T12:43:59;14.75;;;1.58;;
69744;SDS011;57015;50.120;-5.168;2022-10-16T12:49:04;11.93;;;1.60;;
69744;SDS011;57015;50.120;-5.168;2022-10-16T12:51:39;13.48;;;1.55;;
69744;SDS011;57015;50.120;-5.168;2022-10-16T12:54:12;9.47;;;1.50;;
69744;SDS011;57015;50.120;-5.168;2022-10-16T12:56:51;15.30;;;1.33;;
69744;SDS011;57015;50.120;-5.168;2022-10-16T12:59:47;10.15;;;1.17;;
69744;SDS011;57015;50.120;-5.168;2022-10-16T13:10:48;10.73;;;1.23;;
69744;SDS011;57015;50.120;-5.168;2022-10-16T13:16:12;13.23;;;1.13;;
69744;SDS011;57015;50.120;-5.168;2022-10-16T13:30:02;9.15;;;0.90;;
69744;SDS011;57015;50.120;-5.168;2022-10-16T13:32:36;11.35;;;1.20;;
69744;SDS011;57015;50.120;-5.168;2022-10-16T13:35:02;7.37;;;0.90;;
69744;SDS011;57015;50.120;-5.168;2022-10-16T13:37:29;9.98;;;1.17;;
69744;SDS011;57015;50.120;-5.168;2022-10-16T13:40:09;6.20;;;0.83;;
69744;SDS011;57015;50.120;-5.168;2022-10-16T13:42:44;11.07;;;0.85;;
69744;SDS011;57015;50.120;-5.168;2022-10-16T13:45:19;7.60;;;0.83;;
69744;SDS011;57015;50.120;-5.168;2022-10-16T13:47:46;8.37;;;0.90;;
69744;SDS011;57015;50.120;-5.168;2022-10-16T13:50:12;9.60;;;1.08;;
69744;SDS011;57015;50.120;-5.168;2022-10-16T13:52:39;9.87;;;0.70;;
69744;SDS011;57015;50.120;-5.168;2022-10-16T13:55:15;12.48;;;1.38;;
69744;SDS011;57015;50.120;-5.168;2022-10-16T13:57:42;6.20;;;1.10;;
69744;SDS011;57015;50.120;-5.168;2022-10-16T14:00:18;11.10;;;0.98;;
69744;SDS011;57015;50.120;-5.168;2022-10-16T14:02:45;6.80;;;0.55;;
69744;SDS011;57015;50.120;-5.168;2022-10-16T14:05:16;7.35;;;0.40;;
69744;SDS011;57015;50.120;-5.168;2022-10-16T14:07:41;5.77;;;0.60;;
69744;SDS011;57015;50.120;-5.168;2022-10-16T14:10:18;5.90;;;0.50;;
69744;SDS011;57015;50.120;-5.168;2022-10-16T14:12:54;5.72;;;0.82;;
69744;SDS011;57015;50.120;-5.168;2022-10-16T14:15:20;4.75;;;0.52;;
69744;SDS011;57015;50.120;-5.168;2022-10-16T14:17:47;7.97;;;1.03;;
69744;SDS011;57015;50.120;-5.168;2022-10-16T14:20:15;6.25;;;0.70;;
69744;SDS011;57015;50.120;-5.168;2022-10-16T14:22:41;5.05;;;0.40;;
69744;SDS011;57015;50.120;-5.168;2022-10-16T14:30:30;4.70;;;0.70;;
69744;SDS011;57015;50.120;-5.168;2022-10-16T14:33:02;9.55;;;0.90;;
69744;SDS011;57015;50.120;-5.168;2022-10-16T14:37:56;8.33;;;1.13;;
69744;SDS011;57015;50.120;-5.168;2022-10-16T14:40:24;9.43;;;1.00;;
69744;SDS011;57015;50.120;-5.168;2022-10-16T14:42:51;7.82;;;0.85;;
69744;SDS011;57015;50.120;-5.168;2022-10-16T14:45:27;10.00;;;1.13;;
69744;SDS011;57015;50.120;-5.168;2022-10-16T14:47:54;10.40;;;1.27;;
69744;SDS011;57015;50.120;-5.168;2022-10-16T14:50:21;6.05;;;0.65;;
69744;SDS011;57015;50.120;-5.168;2022-10-16T14:52:47;11.95;;;1.25;;
69744;SDS011;57015;50.120;-5.168;2022-10-16T14:55:12;8.57;;;0.90;;
69744;SDS011;57015;50.120;-5.168;2022-10-16T14:57:38;6.33;;;0.83;;
69744;SDS011;57015;50.120;-5.168;2022-10-16T15:00:25;6.28;;;0.70;;
69744;SDS011;57015;50.120;-5.168;2022-10-16T15:02:50;6.93;;;0.98;;
69744;SDS011;57015;50.120;-5.168;2022-10-16T15:07:51;7.03;;;0.80;;
69744;SDS011;57015;50.120;-5.168;2022-10-16T15:10:18;6.32;;;0.43;;
69744;SDS011;57015;50.120;-5.168;2022-10-16T15:12:45;7.10;;;1.17;;
69744;SDS011;57015;50.120;-5.168;2022-10-16T15:15:32;5.20;;;0.80;;
69744;SDS011;57015;50.120;-5.168;2022-10-16T15:18:00;10.55;;;1.15;;
69744;SDS011;57015;50.120;-5.168;2022-10-16T15:20:28;6.33;;;1.20;;
69744;SDS011;57015;50.120;-5.168;2022-10-16T15:22:55;8.88;;;1.00;;
69744;SDS011;57015;50.120;-5.168;2022-10-16T15:27:56;3.05;;;0.75;;
69744;SDS011;57015;50.120;-5.168;2022-10-16T15:30:22;4.03;;;0.60;;
69744;SDS011;57015;50.120;-5.168;2022-10-16T15:32:47;6.10;;;0.77;;
69744;SDS011;57015;50.120;-5.168;2022-10-16T15:35:13;3.83;;;0.43;;
69744;SDS011;57015;50.120;-5.168;2022-10-16T15:37:39;2.23;;;0.30;;
69744;SDS011;57015;50.120;-5.168;2022-10-16T15:40:04;3.77;;;0.50;;
69744;SDS011;57015;50.120;-5.168;2022-10-16T15:42:30;2.45;;;0.40;;
69744;SDS011;57015;50.120;-5.168;2022-10-16T15:44:55;2.93;;;0.20;;
69744;SDS011;57015;50.120;-5.168;2022-10-16T15:47:21;1.00;;;0.22;;
69744;SDS011;57015;50.120;-5.168;2022-10-16T15:49:46;2.55;;;0.40;;
69744;SDS011;57015;50.120;-5.168;2022-10-16T15:52:12;1.63;;;0.30;;
69744;SDS011;57015;50.120;-5.168;2022-10-16T15:54:37;4.00;;;0.30;;
69744;SDS011;57015;50.120;-5.168;2022-10-16T15:57:03;2.87;;;0.50;;
69744;SDS011;57015;50.120;-5.168;2022-10-16T15:59:28;2.03;;;0.40;;
69744;SDS011;57015;50.120;-5.168;2022-10-16T16:01:53;3.40;;;0.50;;
69744;SDS011;57015;50.120;-5.168;2022-10-16T16:04:19;5.47;;;0.50;;
69744;SDS011;57015;50.120;-5.168;2022-10-16T16:06:44;2.07;;;0.40;;
69744;SDS011;57015;50.120;-5.168;2022-10-16T16:09:11;2.47;;;0.40;;
69744;SDS011;57015;50.120;-5.168;2022-10-16T16:11:37;3.33;;;0.80;;
69744;SDS011;57015;50.120;-5.168;2022-10-16T16:14:04;3.20;;;0.50;;
69744;SDS011;57015;50.120;-5.168;2022-10-16T16:16:32;2.30;;;0.40;;
69744;SDS011;57015;50.120;-5.168;2022-10-16T16:19:03;2.67;;;0.22;;
69744;SDS011;57015;50.120;-5.168;2022-10-16T16:21:30;2.45;;;0.20;;
69744;SDS011;57015;50.120;-5.168;2022-10-16T16:23:56;2.07;;;0.40;;
69744;SDS011;57015;50.120;-5.168;2022-10-16T16:26:23;2.47;;;0.30;;
69744;SDS011;57015;50.120;-5.168;2022-10-16T16:28:53;1.95;;;0.20;;
69744;SDS011;57015;50.120;-5.168;2022-10-16T16:31:19;2.05;;;0.20;;
69744;SDS011;57015;50.120;-5.168;2022-10-16T16:33:45;1.48;;;0.20;;
69744;SDS011;57015;50.120;-5.168;2022-10-16T16:36:11;2.20;;;0.20;;
69744;SDS011;57015;50.120;-5.168;2022-10-16T16:38:37;0.90;;;0.20;;
69744;SDS011;57015;50.120;-5.168;2022-10-16T16:41:16;2.28;;;0.20;;
69744;SDS011;57015;50.120;-5.168;2022-10-16T16:43:43;0.97;;;0.40;;
69744;SDS011;57015;50.120;-5.168;2022-10-16T16:46:09;1.02;;;0.20;;
69744;SDS011;57015;50.120;-5.168;2022-10-16T16:48:35;2.80;;;0.57;;
69744;SDS011;57015;50.120;-5.168;2022-10-16T16:51:18;1.98;;;0.40;;